createdAt,value
2022-10-26T00:01:11.826Z,101335.97
2022-10-26T00:03:41.933Z,101346.31
2022-10-26T00:06:11.853Z,101353.25
2022-10-26T00:08:42.155Z,101352.31
2022-10-26T00:11:10.864Z,101353.22
2022-10-26T00:13:40.143Z,101354.09
2022-10-26T00:16:11.225Z,101349.75
2022-10-26T00:18:40.315Z,101353.09
2022-10-26T00:21:10.606Z,101341.97
2022-10-26T00:23:38.142Z,101358.28
2022-10-26T00:26:06.017Z,101354.91
2022-10-26T00:28:33.668Z,101360.88
2022-10-26T00:31:02.441Z,101362.66
2022-10-26T00:33:30.169Z,101361.78
2022-10-26T00:35:59.273Z,101372.13
2022-10-26T00:38:26.695Z,101374.75
2022-10-26T00:40:54.176Z,101379.06
2022-10-26T00:43:42.989Z,101373.84
2022-10-26T00:46:15.229Z,101374.69
2022-10-26T00:48:45.667Z,101373.00
2022-10-26T00:51:20.610Z,101378.97
2022-10-26T00:53:48.444Z,101377.31
2022-10-26T00:56:16.498Z,101380.59
2022-10-26T00:58:44.998Z,101366.78
2022-10-26T01:01:12.719Z,101368.47
2022-10-26T01:03:40.288Z,101365.03
2022-10-26T01:06:09.524Z,101366.75
2022-10-26T01:08:38.573Z,101369.38
2022-10-26T01:11:06.919Z,101365.06
2022-10-26T01:13:36.819Z,101365.94
2022-10-26T01:16:28.145Z,101366.72
2022-10-26T01:19:04.404Z,101365.09
2022-10-26T01:21:49.634Z,101361.59
2022-10-26T01:24:28.252Z,101356.38
2022-10-26T01:27:07.307Z,101353.88
2022-10-26T01:30:13.205Z,101354.69
2022-10-26T01:32:48.693Z,101351.19
2022-10-26T01:35:22.400Z,101357.13
2022-10-26T01:37:58.524Z,101347.63
2022-10-26T01:40:30.428Z,101350.19
2022-10-26T01:43:02.367Z,101351.94
2022-10-26T01:45:31.791Z,101346.00
2022-10-26T01:48:03.008Z,101341.66
2022-10-26T01:50:32.571Z,101344.91
2022-10-26T01:53:00.177Z,101349.94
2022-10-26T01:55:55.257Z,101345.81
2022-10-26T01:58:45.373Z,101340.69
2022-10-26T02:01:32.919Z,101333.66
2022-10-26T02:04:10.168Z,101338.94
2022-10-26T02:06:46.480Z,101338.06
2022-10-26T02:09:25.595Z,101337.94
2022-10-26T02:11:54.985Z,101334.47
2022-10-26T02:14:30.651Z,101340.56
2022-10-26T02:17:03.463Z,101332.81
2022-10-26T02:19:39.453Z,101329.47
2022-10-26T02:22:13.462Z,101329.41
2022-10-26T02:24:42.152Z,101327.38
2022-10-26T02:27:16.261Z,101317.97
2022-10-26T02:29:45.177Z,101323.16
2022-10-26T02:32:13.573Z,101324.81
2022-10-26T02:34:46.901Z,101316.41
2022-10-26T02:37:19.009Z,101319.78
2022-10-26T02:39:49.887Z,101316.38
2022-10-26T02:42:19.292Z,101331.06
2022-10-26T02:44:51.184Z,101333.41
2022-10-26T02:47:19.749Z,101330.81
2022-10-26T02:49:48.903Z,101331.03
2022-10-26T02:52:23.884Z,101334.25
2022-10-26T02:54:55.116Z,101335.81
2022-10-26T02:57:28.689Z,101337.59
2022-10-26T02:59:57.496Z,101335.94
2022-10-26T03:02:25.611Z,101339.41
2022-10-26T03:04:56.031Z,101342.91
2022-10-26T03:07:24.332Z,101336.84
2022-10-26T03:09:52.072Z,101337.50
2022-10-26T03:12:19.558Z,101337.59
2022-10-26T03:14:47.043Z,101335.94
2022-10-26T03:17:14.460Z,101342.94
2022-10-26T03:19:41.889Z,101333.41
2022-10-26T03:22:10.603Z,101328.97
2022-10-26T03:24:38.017Z,101335.91
2022-10-26T03:27:05.436Z,101335.75
2022-10-26T03:29:32.837Z,101339.13
2022-10-26T03:32:00.266Z,101342.75
2022-10-26T03:34:27.657Z,101345.31
2022-10-26T03:36:55.059Z,101340.97
2022-10-26T03:39:23.831Z,101334.97
2022-10-26T03:41:51.340Z,101337.47
2022-10-26T03:44:18.756Z,101341.78
2022-10-26T03:46:46.174Z,101342.72
2022-10-26T03:49:13.637Z,101335.69
2022-10-26T03:51:41.059Z,101338.31
2022-10-26T03:54:08.663Z,101335.66
2022-10-26T03:56:37.407Z,101341.75
2022-10-26T03:59:04.843Z,101334.91
2022-10-26T04:01:32.306Z,101341.84
2022-10-26T04:03:59.807Z,101341.03
2022-10-26T04:06:27.267Z,101341.00
2022-10-26T04:08:58.214Z,101344.34
2022-10-26T04:11:25.610Z,101346.13
2022-10-26T04:13:55.282Z,101340.09
2022-10-26T04:16:22.923Z,101339.97
2022-10-26T04:18:50.312Z,101349.47
2022-10-26T04:21:17.852Z,101341.75
2022-10-26T04:23:45.229Z,101344.38
2022-10-26T04:26:12.625Z,101340.94
2022-10-26T04:28:39.988Z,101341.78
2022-10-26T04:31:08.729Z,101343.53
2022-10-26T04:33:36.124Z,101342.75
2022-10-26T04:36:03.593Z,101343.50
2022-10-26T04:38:31.017Z,101345.09
2022-10-26T04:40:58.464Z,101348.66
2022-10-26T04:43:25.880Z,101340.91
2022-10-26T04:45:56.011Z,101343.34
2022-10-26T04:50:59.943Z,101352.88
2022-10-26T04:53:27.404Z,101345.97
2022-10-26T04:55:57.952Z,101351.94
2022-10-26T04:58:25.470Z,101350.38
2022-10-26T05:00:52.918Z,101342.63
2022-10-26T05:03:20.653Z,101341.78
2022-10-26T05:05:49.349Z,101345.25
2022-10-26T05:08:17.343Z,101342.63
2022-10-26T05:10:49.202Z,101332.97
2022-10-26T05:13:16.960Z,101338.88
2022-10-26T05:15:44.580Z,101337.84
2022-10-26T05:18:12.032Z,101339.00
2022-10-26T05:20:39.499Z,101340.88
2022-10-26T05:23:13.868Z,101343.41
2022-10-26T05:25:41.259Z,101347.59
2022-10-26T05:28:13.264Z,101350.03
2022-10-26T05:30:41.277Z,101348.38
2022-10-26T05:33:10.727Z,101346.81
2022-10-26T05:35:38.457Z,101346.88
2022-10-26T05:38:11.142Z,101342.53
2022-10-26T05:40:38.619Z,101339.84
2022-10-26T05:43:06.043Z,101346.53
2022-10-26T05:45:33.457Z,101348.22
2022-10-26T05:48:03.057Z,101353.44
2022-10-26T05:50:30.819Z,101358.66
2022-10-26T05:52:58.305Z,101362.16
2022-10-26T05:55:27.829Z,101354.38
2022-10-26T05:57:55.697Z,101361.25
2022-10-26T06:00:25.406Z,101364.00
2022-10-26T06:03:09.336Z,101362.19
2022-10-26T06:05:46.266Z,101365.56
2022-10-26T06:08:14.269Z,101360.31
2022-10-26T06:10:43.741Z,101363.91
2022-10-26T06:13:11.685Z,101358.72
2022-10-26T06:15:52.586Z,101363.97
2022-10-26T06:18:30.436Z,101356.97
2022-10-26T06:21:14.923Z,101361.38
2022-10-26T06:23:52.613Z,101368.88
2022-10-26T06:26:32.551Z,101373.47
2022-10-26T06:29:10.642Z,101379.47
2022-10-26T06:31:38.186Z,101375.84
2022-10-26T06:34:05.803Z,101379.38
2022-10-26T06:36:34.425Z,101381.22
2022-10-26T06:39:05.120Z,101379.56
2022-10-26T06:41:36.313Z,101382.34
2022-10-26T06:44:05.789Z,101384.00
2022-10-26T06:46:40.072Z,101382.44
2022-10-26T06:49:14.972Z,101384.16
2022-10-26T06:51:46.899Z,101381.66
2022-10-26T06:54:20.932Z,101384.97
2022-10-26T06:56:50.529Z,101379.94
2022-10-26T06:59:24.922Z,101390.28
2022-10-26T07:01:52.526Z,101387.69
2022-10-26T07:04:19.985Z,101391.06
2022-10-26T07:06:47.420Z,101379.94
2022-10-26T07:09:14.790Z,101381.69
2022-10-26T07:11:42.284Z,101388.81
2022-10-26T07:14:11.009Z,101388.88
2022-10-26T07:16:38.435Z,101387.81
2022-10-26T07:19:06.083Z,101386.31
2022-10-26T07:21:33.541Z,101390.66
2022-10-26T07:24:00.973Z,101397.72
2022-10-26T07:26:28.425Z,101395.13
2022-10-26T07:28:56.033Z,101392.13
2022-10-26T07:31:26.007Z,101392.44
2022-10-26T07:33:54.656Z,101395.22
2022-10-26T07:36:22.129Z,101401.25
2022-10-26T07:38:52.628Z,101396.84
2022-10-26T07:41:20.528Z,101391.91
2022-10-26T07:43:50.684Z,101390.94
2022-10-26T07:46:18.416Z,101391.06
2022-10-26T07:48:47.119Z,101392.75
2022-10-26T07:51:14.554Z,101391.97
2022-10-26T07:53:42.004Z,101389.50
2022-10-26T07:56:10.749Z,101386.00
2022-10-26T07:58:38.463Z,101384.34
2022-10-26T08:01:07.441Z,101389.59
2022-10-26T08:03:34.999Z,101382.63
2022-10-26T08:06:05.012Z,101384.53
2022-10-26T08:08:32.634Z,101388.81
2022-10-26T08:11:00.887Z,101379.38
2022-10-26T08:13:28.377Z,101384.47
2022-10-26T08:15:59.151Z,101386.25
2022-10-26T08:18:26.978Z,101384.63
2022-10-26T08:21:01.778Z,101388.19
2022-10-26T08:23:38.973Z,101392.38
2022-10-26T08:26:06.843Z,101395.84
2022-10-26T08:28:34.525Z,101392.53
2022-10-26T08:31:01.895Z,101390.03
2022-10-26T08:33:29.312Z,101394.41
2022-10-26T08:35:57.573Z,101390.94
2022-10-26T08:38:25.644Z,101388.38
2022-10-26T08:40:55.432Z,101386.69
2022-10-26T08:43:29.323Z,101384.81
2022-10-26T08:46:00.824Z,101391.84
2022-10-26T08:48:34.037Z,101391.94
2022-10-26T08:51:06.288Z,101391.06
2022-10-26T08:53:41.624Z,101389.31
2022-10-26T08:56:18.787Z,101389.34
2022-10-26T08:58:51.615Z,101395.25
2022-10-26T09:01:19.499Z,101392.69
2022-10-26T09:03:47.029Z,101385.13
2022-10-26T09:06:25.782Z,101388.56
2022-10-26T09:09:03.350Z,101387.63
2022-10-26T09:11:48.233Z,101390.25
2022-10-26T09:14:20.666Z,101382.53
2022-10-26T09:17:00.968Z,101397.28
2022-10-26T09:19:38.692Z,101385.16
2022-10-26T09:22:11.110Z,101389.56
2022-10-26T09:24:43.184Z,101389.56
2022-10-26T09:27:20.927Z,101391.34
2022-10-26T09:29:50.294Z,101396.53
2022-10-26T09:32:20.426Z,101387.00
2022-10-26T09:34:52.183Z,101386.91
2022-10-26T09:37:23.816Z,101383.47
2022-10-26T09:39:59.830Z,101384.41
2022-10-26T09:42:36.004Z,101396.53
2022-10-26T09:45:13.152Z,101383.50
2022-10-26T09:47:45.157Z,101389.59
2022-10-26T09:50:23.290Z,101399.13
2022-10-26T09:52:50.937Z,101397.41
2022-10-26T09:55:18.873Z,101393.88
2022-10-26T09:57:51.657Z,101399.94
2022-10-26T10:00:22.552Z,101392.19
2022-10-26T10:02:52.896Z,101395.66
2022-10-26T10:05:50.365Z,101395.63
2022-10-26T10:08:21.338Z,101404.31
2022-10-26T10:11:06.086Z,101407.81
2022-10-26T10:13:37.158Z,101397.34
2022-10-26T10:16:12.591Z,101402.47
2022-10-26T10:18:41.111Z,101400.75
2022-10-26T10:21:09.951Z,101389.53
2022-10-26T10:23:47.181Z,101398.16
2022-10-26T10:26:14.761Z,101395.50
2022-10-26T10:28:44.036Z,101390.25
2022-10-26T10:31:22.696Z,101392.09
2022-10-26T10:33:50.365Z,101394.72
2022-10-26T10:36:20.977Z,101391.22
2022-10-26T10:38:50.283Z,101392.06
2022-10-26T10:41:21.292Z,101405.81
2022-10-26T10:43:52.757Z,101397.34
2022-10-26T10:46:27.630Z,101393.69
2022-10-26T10:49:03.613Z,101391.13
2022-10-26T10:51:37.312Z,101398.91
2022-10-26T10:54:06.727Z,101395.47
2022-10-26T10:56:38.742Z,101392.75
2022-10-26T10:59:30.611Z,101390.06
2022-10-26T11:02:19.184Z,101390.22
2022-10-26T11:05:00.093Z,101390.88
2022-10-26T11:07:30.648Z,101389.13
2022-10-26T11:10:01.459Z,101388.88
2022-10-26T11:12:32.909Z,101388.91
2022-10-26T11:15:07.043Z,101402.09
2022-10-26T11:17:39.188Z,101398.53
2022-10-26T11:20:14.935Z,101401.34
2022-10-26T11:22:58.447Z,101391.53
2022-10-26T11:25:29.322Z,101389.97
2022-10-26T11:28:00.631Z,101385.38
2022-10-26T11:30:31.775Z,101388.09
2022-10-26T11:33:04.071Z,101378.41
2022-10-26T11:35:36.489Z,101383.72
2022-10-26T11:38:09.317Z,101375.09
2022-10-26T11:40:42.805Z,101367.84
2022-10-26T11:43:15.505Z,101360.91
2022-10-26T11:45:46.726Z,101370.72
2022-10-26T11:48:22.218Z,101374.31
2022-10-26T11:50:54.038Z,101358.16
2022-10-26T11:53:26.379Z,101360.91
2022-10-26T11:55:56.362Z,101358.34
2022-10-26T11:58:26.458Z,101356.44
2022-10-26T12:00:59.242Z,101356.72
2022-10-26T12:03:29.696Z,101347.81
2022-10-26T12:05:57.137Z,101353.44
2022-10-26T12:08:27.624Z,101354.88
2022-10-26T12:11:03.424Z,101356.38
2022-10-26T12:13:37.217Z,101338.16
2022-10-26T12:16:14.294Z,101343.81
2022-10-26T12:19:01.541Z,101347.28
2022-10-26T12:21:31.080Z,101342.53
2022-10-26T12:24:00.685Z,101340.69
2022-10-26T12:26:52.293Z,101337.16
2022-10-26T12:29:38.043Z,101333.72
2022-10-26T12:32:50.261Z,101337.94
2022-10-26T12:35:37.204Z,101329.94
2022-10-26T12:38:51.890Z,101336.22
2022-10-26T12:41:22.393Z,101340.34
2022-10-26T12:43:50.139Z,101339.75
2022-10-26T12:46:45.255Z,101339.53
2022-10-26T12:49:54.502Z,101339.72
2022-10-26T12:52:41.577Z,101344.19
2022-10-26T12:55:33.275Z,101345.66
2022-10-26T12:58:17.893Z,101345.53
2022-10-26T13:00:54.435Z,101343.31
2022-10-26T13:03:31.061Z,101340.50
2022-10-26T13:06:31.608Z,101340.31
2022-10-26T13:09:01.645Z,101338.84
2022-10-26T13:11:33.556Z,101342.06
2022-10-26T13:14:04.322Z,101334.63
2022-10-26T13:16:31.984Z,101330.78
2022-10-26T13:19:00.521Z,101334.41
2022-10-26T13:21:28.787Z,101327.63
2022-10-26T13:24:05.279Z,101329.94
2022-10-26T13:26:53.885Z,101327.66
2022-10-26T13:29:30.847Z,101326.50
2022-10-26T13:31:59.957Z,101326.59
2022-10-26T13:34:30.870Z,101346.50
2022-10-26T13:37:06.161Z,101338.47
2022-10-26T13:39:37.569Z,101343.03
2022-10-26T13:42:06.947Z,101337.06
2022-10-26T13:44:40.370Z,101336.16
2022-10-26T13:47:12.144Z,101342.13
2022-10-26T13:49:42.082Z,101346.28
2022-10-26T13:52:17.361Z,101351.13
2022-10-26T13:54:51.370Z,101351.00
2022-10-26T13:57:23.919Z,101346.50
2022-10-26T13:59:53.715Z,101356.00
2022-10-26T14:02:25.211Z,101352.78
2022-10-26T14:04:54.637Z,101352.53
2022-10-26T14:07:25.071Z,101355.16
2022-10-26T14:09:57.769Z,101350.78
2022-10-26T14:12:28.316Z,101354.06
2022-10-26T14:15:03.770Z,101351.50
2022-10-26T14:17:31.320Z,101359.75
2022-10-26T14:19:58.941Z,101349.00
2022-10-26T14:22:28.841Z,101354.31
2022-10-26T14:24:58.194Z,101351.97
2022-10-26T14:27:27.801Z,101348.88
2022-10-26T14:30:23.891Z,101356.88
2022-10-26T14:32:45.296Z,101355.13
2022-10-26T14:35:13.789Z,101361.69
2022-10-26T14:37:46.459Z,101364.69
2022-10-26T14:40:18.402Z,101355.75
2022-10-26T14:42:50.443Z,101359.38
2022-10-26T14:45:29.879Z,101363.97
2022-10-26T14:48:24.386Z,101368.25
2022-10-26T14:51:02.490Z,101370.00
2022-10-26T14:53:37.795Z,101375.22
2022-10-26T14:56:07.077Z,101375.31
2022-10-26T14:58:35.255Z,101382.19
2022-10-26T15:01:31.624Z,101381.38
2022-10-26T15:04:02.684Z,101382.41
2022-10-26T15:06:32.467Z,101384.91
2022-10-26T15:09:01.451Z,101385.72
2022-10-26T15:11:30.449Z,101383.94
2022-10-26T15:13:59.104Z,101386.53
2022-10-26T15:16:28.269Z,101385.66
2022-10-26T15:18:58.338Z,101391.78
2022-10-26T15:21:31.248Z,101386.63
2022-10-26T15:23:59.726Z,101377.97
2022-10-26T15:26:27.356Z,101386.84
2022-10-26T15:28:55.125Z,101378.00
2022-10-26T15:31:35.121Z,101378.94
2022-10-26T15:34:15.159Z,101375.41
2022-10-26T15:36:44.446Z,101386.69
2022-10-26T15:39:11.912Z,101396.22
2022-10-26T15:41:45.231Z,101391.06
2022-10-26T15:44:22.539Z,101391.00
2022-10-26T15:46:50.655Z,101386.69
2022-10-26T15:49:20.036Z,101399.81
2022-10-26T15:51:50.020Z,101393.03
2022-10-26T15:54:17.461Z,101405.13
2022-10-26T15:56:45.500Z,101411.31
2022-10-26T15:59:15.845Z,101409.63
2022-10-26T16:01:43.384Z,101417.41
2022-10-26T16:04:12.338Z,101416.53
2022-10-26T16:06:42.233Z,101412.19
2022-10-26T16:09:15.555Z,101422.63
2022-10-26T16:11:43.481Z,101414.81
2022-10-26T16:14:11.135Z,101420.97
2022-10-26T16:16:38.948Z,101421.06
2022-10-26T16:19:29.158Z,101427.97
2022-10-26T16:21:53.941Z,101425.41
2022-10-26T16:24:22.792Z,101426.25
2022-10-26T16:26:50.332Z,101419.28
2022-10-26T16:29:17.848Z,101428.88
2022-10-26T16:31:45.301Z,101433.28
2022-10-26T16:34:12.736Z,101429.72
2022-10-26T16:36:40.203Z,101433.19
2022-10-26T16:39:08.656Z,101421.03
2022-10-26T16:41:37.381Z,101431.38
2022-10-26T16:44:05.013Z,101431.53
2022-10-26T16:46:32.553Z,101433.19
2022-10-26T16:49:00.490Z,101432.19
2022-10-26T16:51:29.049Z,101436.69
2022-10-26T16:53:57.977Z,101433.16
2022-10-26T16:56:27.357Z,101445.34
2022-10-26T16:58:57.358Z,101447.94
2022-10-26T17:01:25.502Z,101453.16
2022-10-26T17:03:53.302Z,101455.81
2022-10-26T17:06:21.285Z,101453.13
2022-10-26T17:08:49.311Z,101459.25
2022-10-26T17:11:18.860Z,101457.41
2022-10-26T17:13:47.224Z,101457.41
2022-10-26T17:16:19.140Z,101461.78
2022-10-26T17:18:48.071Z,101466.09
2022-10-26T17:21:17.815Z,101472.25
2022-10-26T17:23:45.308Z,101473.88
2022-10-26T17:26:14.723Z,101481.75
2022-10-26T17:28:43.241Z,101478.28
2022-10-26T17:31:13.258Z,101480.06
2022-10-26T17:33:43.683Z,101479.97
2022-10-26T17:36:13.078Z,101486.91
2022-10-26T17:38:42.430Z,101490.41
2022-10-26T17:41:12.049Z,101494.00
2022-10-26T17:43:40.872Z,101491.47
2022-10-26T17:46:11.395Z,101488.03
2022-10-26T17:48:39.354Z,101496.72
2022-10-26T17:51:11.178Z,101499.31
2022-10-26T17:53:38.647Z,101495.84
2022-10-26T17:56:08.182Z,101501.00
2022-10-26T17:58:36.356Z,101495.69
2022-10-26T18:01:06.594Z,101502.72
2022-10-26T18:03:34.658Z,101504.50
2022-10-26T18:06:02.648Z,101507.97
2022-10-26T18:08:33.284Z,101517.53
2022-10-26T18:11:01.300Z,101516.66
2022-10-26T18:13:31.323Z,101516.66
2022-10-26T18:16:04.274Z,101531.44
2022-10-26T18:18:31.908Z,101532.31
2022-10-26T18:21:02.794Z,101534.03
2022-10-26T18:23:31.613Z,101525.34
2022-10-26T18:26:08.345Z,101543.59
2022-10-26T18:28:38.946Z,101538.38
2022-10-26T18:31:08.393Z,101555.75
2022-10-26T18:33:36.350Z,101551.38
2022-10-26T18:36:04.947Z,101550.53
2022-10-26T18:38:34.012Z,101551.44
2022-10-26T18:41:01.847Z,101557.44
2022-10-26T18:43:30.558Z,101559.19
2022-10-26T18:46:05.677Z,101559.19
2022-10-26T18:48:33.771Z,101554.78
2022-10-26T18:51:05.217Z,101560.75
2022-10-26T18:53:35.272Z,101557.34
2022-10-26T18:56:04.411Z,101556.47
2022-10-26T18:58:32.234Z,101553.06
2022-10-26T19:01:09.278Z,101554.75
2022-10-26T19:03:37.320Z,101555.59
2022-10-26T19:06:12.185Z,101559.16
2022-10-26T19:08:41.948Z,101560.03
2022-10-26T19:11:10.904Z,101558.22
2022-10-26T19:13:38.576Z,101561.94
2022-10-26T19:16:16.974Z,101566.19
2022-10-26T19:18:56.647Z,101570.50
2022-10-26T19:21:24.968Z,101573.97
2022-10-26T19:23:56.608Z,101571.38
2022-10-26T19:26:26.799Z,101574.84
2022-10-26T19:28:57.457Z,101576.59
2022-10-26T19:31:27.262Z,101579.22
2022-10-26T19:33:56.433Z,101579.19
2022-10-26T19:36:23.968Z,101586.16
2022-10-26T19:38:51.444Z,101591.38
2022-10-26T19:41:22.374Z,101596.59
2022-10-26T19:43:50.345Z,101597.44
2022-10-26T19:46:21.083Z,101599.16
2022-10-26T19:48:52.843Z,101602.66
2022-10-26T19:51:20.950Z,101603.56
2022-10-26T19:53:48.453Z,101601.84
2022-10-26T19:56:16.712Z,101611.38
2022-10-26T19:58:45.825Z,101613.09
2022-10-26T20:01:15.451Z,101617.47
2022-10-26T20:03:43.250Z,101617.47
2022-10-26T20:06:12.906Z,101620.06
2022-10-26T20:08:41.607Z,101619.22
2022-10-26T20:11:13.199Z,101625.28
2022-10-26T20:13:45.922Z,101625.28
2022-10-26T20:16:14.736Z,101634.84
2022-10-26T20:18:45.792Z,101628.75
2022-10-26T20:21:16.295Z,101622.72
2022-10-26T20:23:43.868Z,101625.28
2022-10-26T20:26:18.092Z,101639.16
2022-10-26T20:28:50.751Z,101638.34
2022-10-26T20:31:18.216Z,101638.31
2022-10-26T20:33:45.663Z,101647.84
2022-10-26T20:36:13.071Z,101657.38
2022-10-26T20:38:41.240Z,101658.25
2022-10-26T20:41:12.044Z,101654.78
2022-10-26T20:43:40.625Z,101655.66
2022-10-26T20:46:11.652Z,101660.84
2022-10-26T20:48:39.746Z,101667.78
2022-10-26T20:51:16.678Z,101662.59
2022-10-26T20:53:52.060Z,101666.09
2022-10-26T20:56:24.730Z,101663.41
2022-10-26T20:58:54.366Z,101669.50
2022-10-26T21:01:26.019Z,101674.72
2022-10-26T21:03:54.077Z,101669.53
2022-10-26T21:06:22.210Z,101673.00
2022-10-26T21:08:50.496Z,101677.31
2022-10-26T21:11:18.453Z,101679.06
2022-10-26T21:13:48.225Z,101685.13
2022-10-26T21:16:16.085Z,101685.09
2022-10-26T21:18:44.896Z,101686.84
2022-10-26T21:21:12.617Z,101687.66
2022-10-26T21:23:41.823Z,101679.94
2022-10-26T21:26:10.101Z,101692.06
2022-10-26T21:28:39.323Z,101681.66
2022-10-26T21:31:09.398Z,101685.13
2022-10-26T21:33:37.248Z,101683.38
2022-10-26T21:36:07.914Z,101687.69
2022-10-26T21:38:35.454Z,101693.69
2022-10-26T21:41:04.588Z,101699.78
2022-10-26T21:43:31.993Z,101699.78
2022-10-26T21:46:03.571Z,101700.66
2022-10-26T21:48:32.771Z,101708.44
2022-10-26T21:51:02.190Z,101712.75
2022-10-26T21:53:31.052Z,101714.50
2022-10-26T21:56:02.361Z,101712.78
2022-10-26T21:58:30.242Z,101716.22
2022-10-26T22:01:06.152Z,101721.38
2022-10-26T22:03:34.185Z,101717.91
2022-10-26T22:06:01.757Z,101728.28
2022-10-26T22:08:31.056Z,101727.41
2022-10-26T22:10:59.270Z,101718.81
2022-10-26T22:13:26.692Z,101714.47
2022-10-26T22:16:12.654Z,101710.97
2022-10-26T22:18:41.467Z,101719.56
2022-10-26T22:21:10.518Z,101724.81
2022-10-26T22:23:40.985Z,101715.28
2022-10-26T22:26:10.941Z,101717.91
2022-10-26T22:28:42.477Z,101729.09
2022-10-26T22:31:13.928Z,101723.03
2022-10-26T22:33:41.760Z,101717.78
2022-10-26T22:36:10.816Z,101717.84
2022-10-26T22:38:40.138Z,101716.13
2022-10-26T22:41:08.538Z,101723.91
2022-10-26T22:43:36.589Z,101723.94
2022-10-26T22:46:06.329Z,101724.78
2022-10-26T22:48:34.408Z,101722.25
2022-10-26T22:51:06.119Z,101731.78
2022-10-26T22:53:33.591Z,101723.97
2022-10-26T22:56:03.187Z,101724.91
2022-10-26T22:58:30.970Z,101728.38
2022-10-26T23:01:03.460Z,101733.56
2022-10-26T23:03:30.946Z,101729.25
2022-10-26T23:05:59.213Z,101730.94
2022-10-26T23:08:26.916Z,101735.22
2022-10-26T23:10:54.756Z,101745.66
2022-10-26T23:13:23.497Z,101736.09
2022-10-26T23:15:50.899Z,101749.97
2022-10-26T23:18:18.384Z,101759.41
2022-10-26T23:20:49.095Z,101761.16
2022-10-26T23:23:16.619Z,101775.78
2022-10-26T23:25:44.159Z,101771.38
2022-10-26T23:28:12.007Z,101772.28
2022-10-26T23:30:40.704Z,101772.28
2022-10-26T23:33:08.756Z,101771.44
2022-10-26T23:35:36.145Z,101779.25
2022-10-26T23:38:03.686Z,101782.63
2022-10-26T23:40:31.151Z,101777.41
2022-10-26T23:42:58.592Z,101776.50
2022-10-26T23:45:26.026Z,101778.22
2022-10-26T23:47:54.774Z,101779.13
2022-10-26T23:50:22.210Z,101776.56
2022-10-26T23:52:49.899Z,101781.75
2022-10-26T23:55:17.691Z,101779.16
2022-10-26T23:57:45.117Z,101780.88
